Time;durP1;ratioP1;P1;durP2;ratioP2;P2;SDS_P1;SDS_P2;PMS_P1;PMS_P2;Temp;Humidity;BMP_temperature;BMP_pressure;BME280_temperature;BME280_humidity;BME280_pressure;Samples;Min_cycle;Max_cycle;Signal;HPM_P1;HPM_P2
2022/09/04 00:00:17;;;;;;;3.03;2.83;;;16.90;99.90;17.50;96930.00;;;;5011441;28;20232;-69
2022/09/04 00:03:25;;;;;;;4.07;3.10;;;16.70;99.90;17.50;96938.00;;;;5010695;28;20694;-69
2022/09/04 00:06:21;;;;;;;2.90;2.67;;;16.60;99.90;17.70;96929.00;;;;5052756;23;20240;-70
2022/09/04 00:09:18;;;;;;;2.27;2.13;;;16.60;99.90;17.70;96928.00;;;;5047724;28;20193;-73
2022/09/04 00:12:09;;;;;;;4.23;2.67;;;16.60;99.90;17.90;96928.00;;;;5043744;28;20211;-73
2022/09/04 00:15:08;;;;;;;2.87;2.57;;;16.60;99.90;18.00;96923.00;;;;5045823;28;20578;-72
2022/09/04 00:18:05;;;;;;;3.07;2.83;;;16.60;99.90;18.00;96925.00;;;;5040849;28;20205;-73
2022/09/04 00:21:00;;;;;;;2.90;2.70;;;16.60;99.90;17.80;96926.00;;;;5039027;28;20220;-71
2022/09/04 00:23:56;;;;;;;3.40;2.77;;;16.60;99.90;17.80;96930.00;;;;5029161;28;20682;-71
2022/09/04 00:26:53;;;;;;;2.30;2.10;;;16.50;99.90;17.80;96932.00;;;;5033098;28;20221;-71
2022/09/04 00:29:51;;;;;;;2.00;1.90;;;16.50;99.90;17.60;96934.00;;;;5042174;28;20195;-72
2022/09/04 00:32:45;;;;;;;2.77;2.50;;;16.50;99.90;17.60;96935.00;;;;5030342;28;20642;-70
2022/09/04 00:35:39;;;;;;;3.00;2.67;;;16.40;99.90;17.60;96936.00;;;;5039063;28;20223;-72
2022/09/04 00:38:42;;;;;;;2.57;2.37;;;16.40;99.90;17.60;96948.00;;;;5027644;28;20193;-72
2022/09/04 00:41:41;;;;;;;2.43;2.23;;;16.30;99.90;17.50;96934.00;;;;5030057;28;20221;-72
2022/09/04 00:44:52;;;;;;;2.70;2.50;;;16.30;99.90;17.50;96937.00;;;;5038357;28;20267;-71
2022/09/04 00:48:01;;;;;;;3.13;2.30;;;16.30;99.90;17.50;96935.00;;;;5030453;28;20576;-72
2022/09/04 00:51:23;;;;;;;3.40;2.80;;;16.20;99.90;17.50;96927.00;;;;5047800;28;20698;-71
2022/09/04 00:54:47;;;;;;;2.97;2.50;;;16.20;99.90;17.30;96928.00;;;;5034882;28;20202;-71
2022/09/04 00:58:07;;;;;;;2.70;2.50;;;16.10;99.90;17.10;96935.00;;;;5045331;28;20201;-72
2022/09/04 01:00:58;;;;;;;3.57;2.13;;;16.00;99.90;16.90;96940.00;;;;5028610;28;20230;-71
2022/09/04 01:04:16;;;;;;;2.77;2.50;;;15.90;99.90;17.00;96944.00;;;;5032862;28;20672;-71
2022/09/04 01:07:34;;;;;;;2.60;2.40;;;15.90;99.90;17.00;96942.00;;;;5010083;28;20238;-74
2022/09/04 01:10:38;;;;;;;2.60;2.37;;;15.80;99.90;17.00;96949.00;;;;5018498;28;20722;-71
2022/09/04 01:13:40;;;;;;;3.13;2.83;;;15.80;99.90;17.00;96944.00;;;;5013534;28;20225;-71
2022/09/04 01:16:38;;;;;;;5.60;2.93;;;15.80;99.90;17.00;96945.00;;;;5014109;28;20695;-70
2022/09/04 01:19:48;;;;;;;3.00;2.50;;;15.70;99.90;16.80;96952.00;;;;5019095;28;20227;-74
2022/09/04 01:22:59;;;;;;;2.50;2.30;;;15.70;99.90;16.30;96955.00;;;;5021384;28;20194;-71
2022/09/04 01:26:04;;;;;;;2.37;2.23;;;15.60;99.90;16.40;96952.00;;;;5019646;28;20221;-71
2022/09/04 01:29:10;;;;;;;6.03;3.07;;;15.50;99.90;16.70;96959.00;;;;5019480;28;20676;-71
2022/09/04 01:32:09;;;;;;;2.50;2.30;;;15.40;99.90;16.70;96958.00;;;;5023592;28;20213;-71
2022/09/04 01:35:05;;;;;;;3.60;2.40;;;15.40;99.90;16.70;96962.00;;;;5029113;28;20197;-74
2022/09/04 01:38:06;;;;;;;2.73;2.30;;;15.40;99.90;16.70;96951.00;;;;5028633;28;20664;-71
2022/09/04 01:41:04;;;;;;;2.90;2.70;;;15.40;99.90;16.50;96943.00;;;;5028983;28;20232;-71
2022/09/04 01:43:53;;;;;;;3.07;2.80;;;15.40;99.90;16.60;96955.00;;;;5023652;28;20232;-71
2022/09/04 01:46:50;;;;;;;2.43;2.23;;;15.40;99.90;16.70;96961.00;;;;5022494;28;20720;-74
2022/09/04 01:49:46;;;;;;;4.57;2.67;;;15.40;99.90;16.60;96963.00;;;;5015556;28;20276;-70
2022/09/04 01:52:47;;;;;;;2.30;2.10;;;15.40;99.90;16.30;96960.00;;;;5012207;28;20932;-71
2022/09/04 01:55:44;;;;;;;2.73;2.53;;;15.30;99.90;16.50;96956.00;;;;5015609;28;20715;-73
2022/09/04 01:58:47;;;;;;;2.33;2.10;;;15.30;99.90;16.60;96953.00;;;;5022346;28;20198;-71
2022/09/04 02:01:46;;;;;;;3.57;2.37;;;15.30;99.90;16.50;96951.00;;;;5012609;28;20226;-71
2022/09/04 02:04:46;;;;;;;2.20;2.03;;;15.30;99.90;16.40;96954.00;;;;5019098;28;20237;-71
2022/09/04 02:07:45;;;;;;;2.77;2.20;;;15.20;99.90;16.40;96955.00;;;;5014335;28;20580;-71
2022/09/04 02:10:45;;;;;;;2.43;2.10;;;15.20;99.90;16.40;96948.00;;;;5014189;28;20213;-71
2022/09/04 02:13:48;;;;;;;2.10;1.90;;;15.20;99.90;16.40;96948.00;;;;5011757;28;20193;-71
2022/09/04 02:16:56;;;;;;;2.60;2.13;;;15.20;99.90;16.30;96959.00;;;;5013484;28;20218;-72
2022/09/04 02:20:07;;;;;;;2.30;2.10;;;15.10;99.90;15.90;96958.00;;;;5017939;28;20772;-70
2022/09/04 02:23:12;;;;;;;2.67;2.47;;;15.10;99.90;15.90;96960.00;;;;5025279;28;20205;-71
2022/09/04 02:26:10;;;;;;;2.60;2.40;;;15.00;99.90;15.90;96958.00;;;;5023397;28;20712;-74
2022/09/04 02:29:10;;;;;;;2.00;1.90;;;14.90;99.90;16.10;96961.00;;;;5024811;28;20201;-71
2022/09/04 02:32:05;;;;;;;3.33;1.83;;;14.90;99.90;16.10;96956.00;;;;5027326;28;20201;-71
2022/09/04 02:35:07;;;;;;;4.27;2.20;;;14.80;99.90;16.00;96955.00;;;;5023190;28;20567;-71
2022/09/04 02:38:07;;;;;;;7.17;2.20;;;14.80;99.90;16.00;96957.00;;;;5027308;28;20607;-71
2022/09/04 02:41:06;;;;;;;2.40;2.23;;;14.80;99.90;16.00;96965.00;;;;5028374;28;20225;-71
2022/09/04 02:44:13;;;;;;;2.27;2.07;;;14.80;99.90;15.90;96959.00;;;;5013153;28;20202;-71
2022/09/04 02:47:13;;;;;;;2.50;2.30;;;14.70;99.90;15.90;96961.00;;;;5025054;28;20614;-72
2022/09/04 02:50:14;;;;;;;2.90;2.70;;;14.70;99.90;15.90;96966.00;;;;5021803;28;20213;-73
2022/09/04 02:53:24;;;;;;;2.63;2.43;;;14.70;99.90;15.90;96967.00;;;;5011089;28;20213;-72
2022/09/04 02:56:30;;;;;;;3.43;2.10;;;14.70;99.90;15.80;96972.00;;;;5022077;28;20228;-71
2022/09/04 02:59:35;;;;;;;4.73;1.90;;;14.70;99.90;15.60;96977.00;;;;5021463;28;20190;-71
2022/09/04 03:02:31;;;;;;;2.57;2.20;;;14.60;99.90;15.50;96975.00;;;;5011003;28;20229;-74
2022/09/04 03:05:23;;;;;;;2.30;2.10;;;14.50;99.90;15.80;96980.00;;;;5013194;28;20614;-71
2022/09/04 03:08:21;;;;;;;2.53;2.33;;;14.50;99.90;15.80;96978.00;;;;5020408;28;20201;-71
2022/09/04 03:11:17;;;;;;;2.40;1.87;;;14.50;99.90;15.80;96988.00;;;;5025413;28;20193;-71
2022/09/04 03:14:14;;;;;;;2.40;2.20;;;14.50;99.90;15.80;96990.00;;;;5020598;28;20198;-73
2022/09/04 03:17:12;;;;;;;2.10;2.00;;;14.50;99.90;15.50;96993.00;;;;5011119;28;20214;-74
2022/09/04 03:20:08;;;;;;;2.80;2.53;;;14.50;99.90;15.60;96997.00;;;;5014262;28;20213;-71
2022/09/04 03:23:04;;;;;;;2.10;2.00;;;14.50;99.90;15.70;96998.00;;;;5010767;28;20224;-72
2022/09/04 03:26:22;;;;;;;3.20;2.73;;;14.40;99.90;15.70;97000.00;;;;5025002;28;20221;-72
2022/09/04 03:29:23;;;;;;;1.60;1.50;;;14.50;99.90;15.70;97006.00;;;;4997415;28;20673;-73
2022/09/04 03:32:23;;;;;;;3.03;2.20;;;14.40;99.90;15.60;97006.00;;;;5025110;28;20208;-71
2022/09/04 03:35:22;;;;;;;2.20;2.00;;;14.40;99.90;15.40;97005.00;;;;5026248;28;20224;-71
2022/09/04 03:38:20;;;;;;;2.63;2.43;;;14.40;99.90;15.40;97013.00;;;;5025432;28;20563;-72
2022/09/04 03:41:16;;;;;;;2.80;2.37;;;14.40;99.90;15.40;97013.00;;;;5012438;28;20218;-71
2022/09/04 03:44:21;;;;;;;7.60;2.30;;;14.30;99.90;15.60;97015.00;;;;5011903;28;20547;-71
2022/09/04 03:47:21;;;;;;;1.97;1.80;;;14.30;99.90;15.60;97014.00;;;;5026913;28;20247;-71
2022/09/04 03:50:22;;;;;;;2.23;1.87;;;14.30;99.90;15.40;97013.00;;;;5025083;28;20197;-72
2022/09/04 03:53:23;;;;;;;2.17;1.97;;;14.30;99.90;15.50;97018.00;;;;5024129;28;20604;-71
2022/09/04 03:56:40;;;;;;;1.90;1.80;;;14.30;99.90;15.60;97032.00;;;;5015224;28;20244;-71
2022/09/04 03:59:51;;;;;;;2.60;2.20;;;14.30;99.90;15.60;97036.00;;;;5010924;28;20193;-71
2022/09/04 04:03:01;;;;;;;2.13;1.93;;;14.30;99.90;15.60;97029.00;;;;5010396;28;20218;-72
2022/09/04 04:06:07;;;;;;;2.47;1.70;;;14.30;99.90;15.50;97045.00;;;;5024840;28;20225;-71
2022/09/04 04:09:22;;;;;;;1.37;1.27;;;14.30;99.90;15.40;97037.00;;;;5030166;28;20216;-74
2022/09/04 04:12:38;;;;;;;2.07;1.97;;;14.30;99.90;15.40;97042.00;;;;5026827;28;20208;-71
2022/09/04 04:15:50;;;;;;;1.80;1.70;;;14.30;99.90;15.30;97049.00;;;;5010586;28;20226;-72
2022/09/04 04:19:05;;;;;;;2.30;1.60;;;14.20;99.90;15.40;97049.00;;;;5020774;28;20722;-72
2022/09/04 04:22:13;;;;;;;1.53;1.43;;;14.20;99.90;15.30;97057.00;;;;5021544;28;20217;-72
2022/09/04 04:25:34;;;;;;;2.10;1.97;;;14.20;99.90;15.20;97063.00;;;;5027897;28;20193;-71
2022/09/04 04:28:58;;;;;;;3.50;1.77;;;14.10;99.90;15.20;97061.00;;;;5033850;28;20196;-71
2022/09/04 04:32:10;;;;;;;1.73;1.63;;;14.10;99.90;15.20;97062.00;;;;5008204;28;20201;-71
2022/09/04 04:35:14;;;;;;;2.03;1.83;;;14.00;99.90;15.20;97058.00;;;;5029692;28;20216;-71
2022/09/04 04:38:46;;;;;;;1.50;1.40;;;14.00;99.90;15.00;97075.00;;;;5025616;28;20204;-71
2022/09/04 04:42:06;;;;;;;2.00;1.90;;;14.00;99.90;15.20;97069.00;;;;5015060;28;20221;-72
2022/09/04 04:48:59;;;;;;;1.77;1.67;;;14.00;99.90;15.00;97084.00;;;;5031366;28;20201;-71
2022/09/04 04:52:05;;;;;;;2.20;1.60;;;13.90;99.90;15.10;97090.00;;;;5032257;28;20205;-73
2022/09/04 04:55:16;;;;;;;1.67;1.57;;;13.90;99.90;14.90;97093.00;;;;5027475;28;20213;-71
2022/09/04 04:58:28;;;;;;;2.03;1.80;;;13.90;99.90;15.10;97104.00;;;;5024903;28;20202;-72
2022/09/04 05:01:31;;;;;;;1.90;1.80;;;13.90;99.90;14.90;97098.00;;;;5013552;28;20201;-73
2022/09/04 05:04:29;;;;;;;1.90;1.80;;;13.90;99.90;15.10;97107.00;;;;5023813;28;20188;-71
2022/09/04 05:07:34;;;;;;;1.70;1.60;;;13.90;99.90;15.00;97110.00;;;;5050860;28;20215;-71
2022/09/04 05:10:32;;;;;;;1.67;1.57;;;13.80;99.90;14.80;97105.00;;;;5052934;28;20203;-74
2022/09/04 05:13:30;;;;;;;3.07;2.00;;;13.80;99.90;14.90;97106.00;;;;5029648;28;20205;-70
2022/09/04 05:16:30;;;;;;;1.67;1.57;;;13.80;99.90;14.80;97115.00;;;;5031934;28;20217;-71
2022/09/04 05:19:29;;;;;;;2.10;1.90;;;13.80;99.90;14.70;97114.00;;;;5048447;28;20207;-71
2022/09/04 05:22:28;;;;;;;5.43;4.57;;;13.80;99.90;14.70;97115.00;;;;5034060;28;20235;-74
2022/09/04 05:25:27;;;;;;;9.20;6.60;;;13.80;99.90;14.90;97113.00;;;;5052021;28;20216;-71
2022/09/04 05:28:28;;;;;;;7.07;6.37;;;13.80;99.90;14.80;97115.00;;;;5050772;28;20193;-74
2022/09/04 05:31:30;;;;;;;3.10;2.90;;;13.80;99.90;14.90;97112.00;;;;5052114;28;20201;-71
2022/09/04 05:34:28;;;;;;;1.60;1.50;;;13.80;99.90;14.80;97118.00;;;;5034000;28;20196;-72
2022/09/04 05:37:28;;;;;;;1.50;1.40;;;13.80;99.90;14.70;97130.00;;;;5032143;28;20194;-72
2022/09/04 05:40:28;;;;;;;2.53;2.33;;;13.80;99.90;14.70;97129.00;;;;5052238;28;20200;-71
2022/09/04 05:43:34;;;;;;;3.57;3.00;;;13.80;99.90;15.00;97123.00;;;;5053410;28;20216;-70
2022/09/04 05:46:41;;;;;;;1.97;1.80;;;13.80;99.90;15.00;97121.00;;;;5050812;28;20295;-75
2022/09/04 05:49:55;;;;;;;1.80;1.70;;;13.90;99.90;15.20;97121.00;;;;5043152;28;20681;-71
2022/09/04 05:53:10;;;;;;;1.60;1.50;;;14.00;99.90;15.40;97130.00;;;;5044106;28;20201;-70
2022/09/04 05:56:49;;;;;;;4.97;2.50;;;14.10;99.90;15.30;97131.00;;;;5032385;28;20719;-70
2022/09/04 06:00:02;;;;;;;3.73;2.10;;;14.20;99.90;15.20;97121.00;;;;5042166;28;20201;-69
2022/09/04 06:03:20;;;;;;;1.63;1.50;;;14.20;99.90;15.60;97126.00;;;;5039501;28;20217;-72
2022/09/04 06:06:21;;;;;;;4.10;1.70;;;14.30;99.90;15.50;97133.00;;;;5042695;28;20220;-76
2022/09/04 06:09:42;;;;;;;1.73;1.63;;;14.30;99.90;15.90;97127.00;;;;5046445;23;20240;-90
2022/09/04 06:13:22;;;;;;;1.80;1.70;;;14.40;99.90;16.00;97137.00;;;;5052430;28;20236;-90
2022/09/04 06:16:38;;;;;;;2.33;1.77;;;14.50;99.90;16.10;97128.00;;;;5027760;28;20204;-89
2022/09/04 06:19:50;;;;;;;1.97;1.80;;;14.70;99.90;16.20;97129.00;;;;5023976;28;20204;-89
2022/09/04 06:22:58;;;;;;;2.17;1.97;;;14.80;99.90;16.20;97120.00;;;;5047890;28;20250;-89
2022/09/04 06:26:12;;;;;;;2.70;2.50;;;14.90;99.90;16.20;97126.00;;;;5026114;28;20194;-89
2022/09/04 06:29:35;;;;;;;3.43;3.13;;;15.00;99.90;16.40;97126.00;;;;5019893;28;20216;-89
2022/09/04 06:32:51;;;;;;;2.40;2.20;;;15.10;99.90;16.40;97129.00;;;;5015169;28;20224;-89
2022/09/04 06:36:29;;;;;;;2.90;2.70;;;15.30;99.90;16.70;97132.00;;;;5012759;28;20206;-89
2022/09/04 06:39:41;;;;;;;3.00;2.80;;;15.40;99.90;17.00;97128.00;;;;5022491;28;20690;-89
2022/09/04 06:42:47;;;;;;;3.10;2.80;;;15.50;99.90;17.30;97133.00;;;;5010971;28;20341;-88
2022/09/04 06:45:52;;;;;;;4.50;2.77;;;15.70;99.90;17.40;97139.00;;;;5022951;28;20186;-90
2022/09/04 06:48:59;;;;;;;3.10;2.43;;;15.80;99.90;17.50;97144.00;;;;5021081;28;20204;-89
2022/09/04 06:52:06;;;;;;;12.67;3.00;;;16.00;99.90;17.90;97146.00;;;;5014272;28;20217;-91
2022/09/04 06:55:00;;;;;;;2.90;2.50;;;16.20;99.90;18.30;97152.00;;;;5023550;28;20209;-90
2022/09/04 06:58:16;;;;;;;3.10;2.63;;;16.40;99.90;18.40;97144.00;;;;5024317;28;20210;-89
2022/09/04 07:01:10;;;;;;;2.70;2.10;;;16.70;99.90;18.70;97147.00;;;;5016663;28;20198;-88
2022/09/04 07:04:18;;;;;;;2.53;2.33;;;16.90;99.90;19.10;97137.00;;;;5028110;28;20229;-89
2022/09/04 07:07:17;;;;;;;2.47;2.27;;;17.20;99.90;19.50;97145.00;;;;5040649;28;20697;-87
2022/09/04 07:10:10;;;;;;;2.70;2.50;;;17.50;99.90;19.50;97156.00;;;;5030349;28;20217;-86
2022/09/04 07:13:56;;;;;;;3.90;2.47;;;17.70;99.90;19.80;97144.00;;;;5020879;28;20613;-88
2022/09/04 07:16:57;;;;;;;6.27;1.87;;;17.90;99.90;20.00;97141.00;;;;5015510;28;20194;-87
2022/09/04 07:20:17;;;;;;;1.70;1.60;;;18.10;99.90;20.20;97151.00;;;;5035417;28;20203;-88
2022/09/04 07:23:22;;;;;;;3.50;2.20;;;18.30;99.90;20.40;97152.00;;;;5010858;28;20234;-88
2022/09/04 07:26:27;;;;;;;2.00;1.70;;;18.50;99.90;20.30;97161.00;;;;5011892;28;20667;-86
2022/09/04 07:29:36;;;;;;;1.73;1.63;;;18.60;99.90;20.70;97148.00;;;;5022490;28;20197;-85
2022/09/04 07:32:36;;;;;;;1.80;1.70;;;18.80;99.90;20.70;97154.00;;;;5022407;28;20545;-89
2022/09/04 07:35:34;;;;;;;1.60;1.50;;;19.00;99.90;20.80;97151.00;;;;5018120;28;20205;-88
2022/09/04 07:38:34;;;;;;;1.70;1.60;;;19.10;99.90;21.00;97156.00;;;;5018331;28;20198;-86
2022/09/04 07:41:33;;;;;;;3.90;2.10;;;19.20;99.90;21.20;97169.00;;;;5014168;28;20651;-86
2022/09/04 07:44:32;;;;;;;1.33;1.23;;;19.40;99.90;21.50;97165.00;;;;5051507;28;20605;-87
2022/09/04 07:47:34;;;;;;;1.87;1.60;;;19.50;99.90;21.50;97168.00;;;;5046350;28;20204;-88
2022/09/04 07:50:29;;;;;;;1.63;1.50;;;19.70;99.90;21.40;97164.00;;;;5027648;28;20648;-89
2022/09/04 07:53:29;;;;;;;2.27;2.07;;;19.80;99.90;21.80;97171.00;;;;5023702;28;20221;-87
2022/09/04 07:56:30;;;;;;;2.03;1.90;;;20.00;99.90;22.00;97171.00;;;;5034963;28;20197;-87
2022/09/04 07:59:50;;;;;;;1.50;1.40;;;20.20;99.90;22.20;97185.00;;;;5022306;28;20194;-87
2022/09/04 08:03:27;;;;;;;1.73;1.63;;;20.30;99.90;21.80;97183.00;;;;5025700;28;20225;-87
2022/09/04 08:06:23;;;;;;;1.77;1.43;;;20.30;99.90;21.90;97186.00;;;;5036008;28;20208;-87
2022/09/04 08:09:42;;;;;;;1.83;1.50;;;20.20;99.90;21.50;97181.00;;;;5036982;28;20205;-88
2022/09/04 08:13:08;;;;;;;1.70;1.60;;;20.10;99.90;21.60;97186.00;;;;5046270;28;20228;-89
2022/09/04 08:16:06;;;;;;;1.67;1.57;;;20.00;99.90;22.00;97182.00;;;;5017905;28;20205;-88
2022/09/04 08:19:18;;;;;;;1.60;1.47;;;20.10;99.90;21.80;97172.00;;;;5016839;28;20567;-89
2022/09/04 08:22:13;;;;;;;2.17;1.97;;;20.20;99.90;22.10;97175.00;;;;5009367;28;20236;-88
2022/09/04 08:25:20;;;;;;;3.10;1.80;;;20.30;99.90;22.60;97174.00;;;;5019185;28;20217;-87
2022/09/04 08:28:55;;;;;;;1.50;1.40;;;20.40;99.90;22.80;97178.00;;;;5035807;28;20201;-89
2022/09/04 08:32:04;;;;;;;1.70;1.60;;;20.70;99.90;22.90;97173.00;;;;5016284;28;20230;-87
2022/09/04 08:35:12;;;;;;;1.97;1.87;;;20.90;99.90;23.20;97186.00;;;;5020899;28;20205;-87
2022/09/04 08:38:31;;;;;;;1.90;1.80;;;21.20;99.90;23.40;97175.00;;;;5019599;28;20609;-87
2022/09/04 08:42:05;;;;;;;2.73;1.77;;;21.40;99.90;23.80;97174.00;;;;5022436;28;20212;-87
2022/09/04 08:45:55;;;;;;;1.50;1.40;;;21.60;99.90;23.90;97181.00;;;;5026060;28;20687;-87
2022/09/04 08:49:30;;;;;;;3.77;1.40;;;21.90;99.90;24.20;97181.00;;;;5010383;28;20217;-88
2022/09/04 08:53:26;;;;;;;1.57;1.47;;;22.10;99.90;24.50;97182.00;;;;5021238;28;20840;-87
2022/09/04 08:56:35;;;;;;;1.40;1.30;;;22.20;99.90;24.70;97180.00;;;;4974210;28;20618;-87
2022/09/04 08:59:57;;;;;;;1.93;1.60;;;22.40;99.90;24.70;97173.00;;;;4965568;28;20210;-88
2022/09/04 09:03:28;;;;;;;1.97;1.87;;;22.60;99.90;24.80;97174.00;;;;5021707;28;20220;-89
2022/09/04 09:07:03;;;;;;;1.80;1.53;;;22.70;99.90;25.10;97181.00;;;;5019004;28;20579;-86
2022/09/04 09:10:34;;;;;;;2.27;1.57;;;22.90;99.90;25.40;97183.00;;;;5010530;28;20217;-88
2022/09/04 09:14:26;;;;;;;1.40;1.30;;;23.10;99.90;25.80;97185.00;;;;5016818;28;20221;-88
2022/09/04 09:17:28;;;;;;;1.87;1.57;;;23.30;99.90;25.70;97185.00;;;;5025644;28;20212;-89
2022/09/04 09:20:28;;;;;;;1.97;1.30;;;23.60;99.90;25.60;97181.00;;;;5012977;28;20288;-88
2022/09/04 09:23:40;;;;;;;1.40;1.27;;;23.70;99.90;24.70;97186.00;;;;5012027;28;20230;-90
2022/09/04 09:26:32;;;;;;;1.37;1.27;;;23.70;99.90;25.70;97184.00;;;;5013084;28;20210;-86
2022/09/04 09:29:49;;;;;;;1.50;1.40;;;23.70;99.90;25.90;97190.00;;;;5023245;28;20733;-88
2022/09/04 09:33:33;;;;;;;1.10;1.00;;;23.70;99.90;26.30;97194.00;;;;5017314;28;20294;-90
2022/09/04 09:37:28;;;;;;;1.43;1.30;;;24.00;99.90;26.30;97190.00;;;;5018540;28;20241;-90
2022/09/04 09:41:05;;;;;;;2.37;1.33;;;24.20;99.90;26.50;97191.00;;;;5019370;28;20210;-87
2022/09/04 09:44:45;;;;;;;1.13;1.03;;;24.40;99.90;26.40;97187.00;;;;5027808;28;20614;-87
2022/09/04 09:48:23;;;;;;;1.43;1.20;;;24.50;99.90;26.40;97189.00;;;;5017462;28;20208;-90
2022/09/04 09:52:02;;;;;;;1.60;1.20;;;24.60;99.90;27.40;97192.00;;;;5021869;28;20206;-88
2022/09/04 09:55:44;;;;;;;1.40;1.30;;;24.80;99.90;27.10;97193.00;;;;4947770;28;20208;-89
2022/09/04 09:59:24;;;;;;;1.60;1.23;;;25.00;99.90;27.10;97193.00;;;;4953096;28;20215;-89
2022/09/04 10:02:45;;;;;;;1.30;1.20;;;25.10;99.90;27.40;97182.00;;;;5017612;28;20232;-89
2022/09/04 10:06:48;;;;;;;3.17;1.20;;;25.20;99.90;27.90;97180.00;;;;5030574;28;20715;-89
2022/09/04 10:10:23;;;;;;;1.37;1.10;;;25.50;99.90;28.40;97175.00;;;;4995061;28;20207;-91
2022/09/04 10:14:01;;;;;;;1.33;1.10;;;25.80;99.90;29.10;97183.00;;;;5010234;28;20239;-89
2022/09/04 10:17:15;;;;;;;1.43;1.33;;;26.20;99.90;29.20;97177.00;;;;5013708;28;20201;-88
2022/09/04 10:20:59;;;;;;;2.83;1.20;;;26.60;99.80;29.80;97166.00;;;;5018647;28;20202;-89
2022/09/04 10:24:22;;;;;;;1.20;1.10;;;27.00;98.70;29.90;97199.00;;;;5024753;28;20737;-87
2022/09/04 10:27:47;;;;;;;1.20;1.10;;;27.40;97.40;29.70;97197.00;;;;5025311;28;20206;-86
2022/09/04 10:31:25;;;;;;;1.40;1.30;;;27.40;96.80;30.30;97162.00;;;;5021788;28;20199;-85
2022/09/04 10:34:32;;;;;;;1.37;1.27;;;27.50;96.30;29.50;97187.00;;;;5016981;28;20204;-86
2022/09/04 10:37:43;;;;;;;1.23;1.13;;;27.60;94.60;29.00;97197.00;;;;5024211;28;20204;-86
2022/09/04 10:40:45;;;;;;;1.43;0.90;;;27.50;93.40;29.90;97168.00;;;;5026159;28;20195;-86
2022/09/04 10:44:01;;;;;;;1.33;1.20;;;27.40;94.60;29.60;97203.00;;;;5015816;28;20216;-86
2022/09/04 10:47:10;;;;;;;1.23;1.20;;;27.40;94.80;29.00;97208.00;;;;5023995;28;20216;-85
2022/09/04 10:50:20;;;;;;;1.30;1.20;;;27.20;94.60;28.60;97206.00;;;;5026938;28;20218;-85
2022/09/04 10:53:35;;;;;;;1.20;1.10;;;27.00;94.60;29.20;97150.00;;;;5020524;28;20220;-85
2022/09/04 10:56:28;;;;;;;1.50;1.17;;;27.00;93.90;29.70;97209.00;;;;5024990;28;20201;-85
2022/09/04 10:59:38;;;;;;;1.87;1.77;;;27.30;93.80;28.40;97205.00;;;;5020327;28;20197;-85
2022/09/04 11:03:32;;;;;;;1.00;1.00;;;27.10;91.80;28.80;97207.00;;;;5017339;28;20701;-85
2022/09/04 11:07:02;;;;;;;1.77;1.37;;;27.00;92.70;28.70;97149.00;;;;5017563;28;20201;-85
2022/09/04 11:10:11;;;;;;;1.10;1.00;;;26.90;92.30;29.10;97197.00;;;;5019832;28;20592;-84
2022/09/04 11:13:47;;;;;;;1.37;1.27;;;27.00;91.00;29.40;97147.00;;;;5025423;28;20232;-86
2022/09/04 11:17:31;;;;;;;1.00;1.00;;;27.10;91.10;31.20;97146.00;;;;5017982;28;20634;-84
2022/09/04 11:21:22;;;;;;;0.73;0.73;;;27.70;91.90;31.30;97137.00;;;;5014402;28;20201;-85
2022/09/04 11:24:58;;;;;;;0.93;0.90;;;28.50;89.70;31.80;97132.00;;;;5018839;28;20212;-84
2022/09/04 11:28:24;;;;;;;1.17;1.10;;;29.00;88.20;32.50;97175.00;;;;5020836;28;20208;-85
2022/09/04 11:31:49;;;;;;;1.13;0.90;;;29.50;85.30;32.80;97128.00;;;;5015998;28;20197;-86
2022/09/04 11:35:23;;;;;;;1.05;0.98;;;29.90;84.80;33.10;97169.00;;;;5019124;28;20203;-85
2022/09/04 11:38:27;;;;;;;0.80;0.80;;;30.20;80.00;31.60;97120.00;;;;5018279;28;20195;-84
2022/09/04 11:41:58;;;;;;;1.20;0.85;;;30.00;76.60;31.40;97170.00;;;;5027257;28;20218;-83
2022/09/04 11:45:25;;;;;;;0.77;0.77;;;30.00;70.70;33.60;97114.00;;;;4996079;28;20231;-85
2022/09/04 11:48:43;;;;;;;1.00;0.80;;;30.20;77.70;34.80;97161.00;;;;5025576;28;20200;-85
2022/09/04 11:52:03;;;;;;;1.40;0.88;;;31.00;77.80;33.00;97175.00;;;;5019795;28;20219;-85
2022/09/04 11:55:30;;;;;;;0.80;0.60;;;31.00;74.60;32.70;97173.00;;;;5046988;28;20185;-86
2022/09/04 11:58:59;;;;;;;0.63;0.63;;;30.70;74.00;32.00;97178.00;;;;5046220;28;20211;-85
2022/09/04 12:02:25;;;;;;;0.80;0.80;;;30.50;73.10;30.90;97181.00;;;;5021816;28;20230;-84
2022/09/04 12:05:37;;;;;;;0.77;0.77;;;30.00;71.50;30.10;97169.00;;;;5020741;28;20216;-83
2022/09/04 12:09:08;;;;;;;1.58;0.82;;;29.40;70.70;29.20;97177.00;;;;5019819;28;20907;-83
2022/09/04 12:12:45;;;;;;;1.38;0.82;;;28.70;70.90;29.20;97174.00;;;;5016452;28;20235;-83
2022/09/04 12:16:18;;;;;;;0.80;0.63;;;28.10;73.30;28.00;97180.00;;;;4959096;28;20217;-84
2022/09/04 12:19:28;;;;;;;1.17;1.10;;;27.50;73.70;28.00;97183.00;;;;5020951;28;20202;-83
2022/09/04 12:22:55;;;;;;;0.80;0.80;;;26.90;76.20;28.00;97183.00;;;;5018307;28;20233;-83
2022/09/04 12:26:23;;;;;;;1.33;0.93;;;26.50;78.70;27.80;97185.00;;;;5013051;28;20224;-84
2022/09/04 12:29:39;;;;;;;1.00;0.67;;;26.30;79.00;28.00;97188.00;;;;5021225;28;20230;-84
2022/09/04 12:33:19;;;;;;;2.03;0.90;;;26.10;79.60;28.00;97195.00;;;;5015971;28;20216;-84
2022/09/04 12:36:59;;;;;;;0.83;0.83;;;26.00;82.20;28.10;97194.00;;;;5028063;28;20200;-84
2022/09/04 12:40:29;;;;;;;0.93;0.80;;;26.00;82.80;28.40;97119.00;;;;5017657;28;20207;-84
2022/09/04 12:43:33;;;;;;;0.80;0.80;;;26.20;83.70;29.80;97115.00;;;;5019002;28;20224;-85
2022/09/04 12:46:38;;;;;;;0.80;0.80;;;27.10;84.00;29.60;97158.00;;;;5028168;28;20243;-86
2022/09/04 12:49:58;;;;;;;1.33;0.70;;;27.60;78.00;28.30;97178.00;;;;5018096;28;20208;-86
2022/09/04 12:53:12;;;;;;;1.10;1.00;;;27.50;76.50;27.80;97185.00;;;;5037335;28;20224;-86
2022/09/04 12:56:09;;;;;;;0.87;0.87;;;26.90;74.40;27.60;97192.00;;;;5036654;28;20218;-85
2022/09/04 12:59:13;;;;;;;0.57;0.57;;;26.60;73.80;27.80;97195.00;;;;5019996;28;20195;-85
2022/09/04 13:02:16;;;;;;;0.53;0.53;;;26.30;74.90;28.20;97175.00;;;;5027391;28;20222;-85
2022/09/04 13:05:26;;;;;;;1.00;0.90;;;26.30;75.20;26.80;97183.00;;;;5028386;28;20230;-89
2022/09/04 13:08:34;;;;;;;1.33;1.23;;;26.30;83.50;26.30;97189.00;;;;5026884;28;20210;-87
2022/09/04 13:11:40;;;;;;;1.40;1.23;;;25.70;83.70;26.00;97198.00;;;;5026750;28;20197;-90
2022/09/04 13:15:01;;;;;;;3.00;1.00;;;25.40;86.60;26.50;97188.00;;;;5026821;28;20206;-85
2022/09/04 13:18:07;;;;;;;1.40;0.90;;;25.20;87.00;27.80;97194.00;;;;5026918;28;20216;-86
2022/09/04 13:21:08;;;;;;;2.20;1.43;;;25.50;90.80;28.30;97206.00;;;;5021230;28;20215;-84
2022/09/04 13:24:24;;;;;;;1.80;1.40;;;25.80;91.80;28.30;97198.00;;;;5029168;28;20204;-87
2022/09/04 13:27:37;;;;;;;3.77;1.43;;;26.00;92.00;28.20;97203.00;;;;5020759;28;20224;-84
2022/09/04 13:30:28;;;;;;;1.93;1.83;;;26.20;92.00;28.50;97211.00;;;;5018800;28;20227;-85
2022/09/04 13:33:38;;;;;;;1.37;1.27;;;26.30;92.10;28.30;97220.00;;;;5024349;28;20240;-86
2022/09/04 13:36:37;;;;;;;1.20;1.10;;;26.40;91.70;28.70;97234.00;;;;5020758;28;20212;-84
2022/09/04 13:39:49;;;;;;;2.90;1.27;;;26.50;92.00;29.10;97217.00;;;;5016924;28;20208;-86
2022/09/04 13:43:25;;;;;;;1.10;0.97;;;26.70;92.10;31.10;97172.00;;;;5028218;28;20216;-86
2022/09/04 13:46:20;;;;;;;1.80;0.90;;;27.50;92.40;31.40;97174.00;;;;5049927;28;20227;-85
2022/09/04 13:49:15;;;;;;;1.25;1.15;;;28.50;91.00;31.80;97184.00;;;;5051652;28;20207;-85
2022/09/04 13:52:08;;;;;;;1.05;1.05;;;29.20;90.40;31.50;97181.00;;;;5024181;28;20231;-86
2022/09/04 13:55:06;;;;;;;1.85;1.20;;;29.60;86.20;31.30;97178.00;;;;5030367;28;20209;-87
2022/09/04 13:58:09;;;;;;;1.17;1.08;;;29.80;85.60;32.70;97179.00;;;;5025993;28;20222;-87
2022/09/04 14:01:05;;;;;;;3.28;1.83;;;30.30;86.60;33.80;97184.00;;;;5023436;28;20197;-85
2022/09/04 14:03:57;;;;;;;1.27;1.17;;;30.70;84.80;34.10;97188.00;;;;5021556;28;20201;-86
2022/09/04 14:06:48;;;;;;;1.13;1.13;;;31.00;82.00;33.00;97222.00;;;;5025948;28;20399;-85
2022/09/04 14:09:44;;;;;;;1.38;1.10;;;31.00;79.20;32.80;97240.00;;;;5024444;28;20595;-86
2022/09/04 14:13:03;;;;;;;1.40;1.30;;;30.90;80.00;31.70;97245.00;;;;5029604;28;20745;-87